Whiteman Air Force Base
KSZL : now visible

Airfield :











YOU CAN JOIN US ON...

 
LOGIN :

Register | Disclaimer

   EN    FR    IT 

 









Legend :    VFR   Marginal VFR   IFR   Intensive IFR   Very Intensive IFR
Visi :
Ceiling :
>= 8 km
>= 3000ft
5 to 8 km
1000 to 3000 ft
1500m to 5 km
500 to 1000 ft
800 to 1500m
200 to 500 ft
< 800m
< 200 ft
Symbols :   Thunderstorms  Fog  Heavy snow  Heavy precipitations  Wind > 20 kt






- Airport Elevation : 870 ft


KSZL - Whiteman Air Force Base

CURRENT METAR :
  • 190156Z 10003KT 10SM CLR 25/18 A3003 RMK AO2A SLP166 T02470181 $

EXPIRED METARs :
  • 190056Z 00000KT 10SM CLR 27/18 A3002 RMK AO2A SLP162 T02650178 $
  • 182356Z 00000KT 10SM FEW040 29/18 A3002 RMK AO2A SLP162 T02920180 10331 20292 57007 $

TAF TAF KSZL
Valid from the 18 at 19:00 until the 20 at 01:00 UTC


181900Z 1819/2001 09009KT 9999 SCT040 QNH3010INS
BECMG 1902/1903 13006KT 9999 SKC QNH3006INS
TEMPO 1910/1914 VRB06KT 4800 BR
BECMG 1914/1915 15009KT 9999 BKN040 QNH2994INS TX33/1821Z TN18/1911Z
KZKC FIR / North America



MET'MAP, your aeronautical weather chart ! - Copyright ORBIFLY December 2007 - Disclaimer

ORBIFLY MET'MAP TEAM :

Programming & Development : Alexandra Zaïnal
Concept & original design : Baudouin d'Aumeries
Assistance for programming : Marc-Olivier Méhu
Technical & hardware support : Manuel Goepfert

Contact : metmap@orbifly.com




SOURCES & CREDITS :

   NOAA       Earth
Advisory